Weather reports worldwide

Advertisment
Bridlington Mrsc, United Kingdom (3292): temperature & dewpoint: 13.02.2020 09:00:00 - 19.02.2020 09:00:00 (GMT)Bridlington Mrsc, United Kingdom (3292): wind speed & gusts: 13.02.2020 09:00:00 - 19.02.2020 09:00:00 (GMT)Bridlington Mrsc, United Kingdom (3292): wind direction: 13.02.2020 09:00:00 - 19.02.2020 09:00:00 (GMT)Bridlington Mrsc, United Kingdom (3292): reduced air pressure: 13.02.2020 09:00:00 - 19.02.2020 09:00:00 (GMT)Bridlington Mrsc, United Kingdom (3292): precipitation: 13.02.2020 09:00:00 - 19.02.2020 09:00:00 (GMT)
Date & Time tt [°C] td [°C] ff [km/h] ff [kn] fx [km/h] fx [kn] dd ppp [hPa] rr [mm]
19.02.2020 09:00:00 5,2 1,2 22 12 - - W 1014,3 0,0
19.02.2020 08:00:00 4,0 0,3 28 15 48 26 W 1013,7 0,0
19.02.2020 07:00:00 3,2 -0,1 18 10 - - W 1013,4 0,0
19.02.2020 06:00:00 3,6 0,0 34 18 50 27 W 1012,3 -
19.02.2020 05:00:00 3,6 0,0 26 14 - - W 1011,9 -
19.02.2020 04:00:00 3,4 -0,1 26 14 46 25 W 1011,2 0,0
19.02.2020 03:00:00 3,6 -0,1 26 14 - - W 1010,9 0,0
19.02.2020 02:00:00 3,6 -0,1 26 14 46 25 W 1010,4 0,0
19.02.2020 01:00:00 3,6 0,2 24 13 - - W 1010,0 0,0
19.02.2020 00:00:00 3,5 0,5 24 13 46 25 W 1009,2 0,0
18.02.2020 23:00:00 3,7 0,4 18 10 - - W 1008,6 0,0
18.02.2020 22:00:00 4,1 0,8 21 11 - - WSW 1007,9 0,0
18.02.2020 21:00:00 4,3 1,1 16 9 - - W 1007,9 0,0
18.02.2020 20:00:00 4,9 0,9 24 13 50 27 W 1007,8 0,0
18.02.2020 19:00:00 5,4 2,6 24 13 - - W 1006,7 0,0
18.02.2020 18:00:00 5,4 2,8 22 12 68 37 W 1006,7 0,8
18.02.2020 17:00:00 7,7 4,1 24 13 59 32 WSW 1006,6 0,2
18.02.2020 16:00:00 7,8 3,6 18 10 74 40 WSW 1006,9 0,0
18.02.2020 15:00:00 9,0 2,8 22 12 48 26 SW 1007,4 0,0
18.02.2020 14:00:00 9,7 3,0 24 13 - - SW 1008,7 0,0
18.02.2020 13:00:00 9,5 3,0 24 13 46 25 WSW 1009,6 0,0
18.02.2020 12:00:00 7,5 3,3 26 14 - - SW 1010,3 0,0
18.02.2020 11:00:00 6,4 1,9 26 14 50 27 SW 1010,8 0,0
18.02.2020 10:00:00 5,6 1,9 26 14 - - SSW 1011,1 -
18.02.2020 09:00:00 4,5 1,3 29 16 - - SSW 1011,3 0,0
18.02.2020 08:00:00 4,3 0,8 24 13 - - SW 1011,4 0,0
18.02.2020 07:00:00 4,3 0,9 26 14 - - SW 1010,9 0,0
18.02.2020 06:00:00 4,1 1,0 22 12 - - WSW 1011,0 -
18.02.2020 05:00:00 3,8 0,5 24 13 - - WSW 1010,5 0,0
18.02.2020 04:00:00 4,4 1,0 24 13 - - WSW 1010,2 0,0
18.02.2020 03:00:00 4,7 0,7 18 10 - - WSW 1010,2 0,0
18.02.2020 02:00:00 4,9 0,7 24 13 48 26 WSW 1010,0 0,0
18.02.2020 01:00:00 4,7 0,8 31 17 54 29 W 1008,9 0,0
18.02.2020 00:00:00 4,8 0,7 28 15 54 29 WSW 1008,1 -
17.02.2020 23:00:00 3,7 0,2 24 13 57 31 WSW 1007,7 0,0
17.02.2020 22:00:00 4,5 -0,1 37 20 61 33 W 1007,3 0,0
17.02.2020 21:00:00 5,3 0,4 28 15 46 25 WSW 1006,2 0,0
17.02.2020 20:00:00 5,5 1,3 16 9 - - WSW 1005,9 0,0
17.02.2020 19:00:00 6,4 1,1 26 14 63 34 WSW 1004,9 0,0
17.02.2020 18:00:00 7,4 1,9 15 8 - - W 1004,4 0,0
17.02.2020 17:00:00 8,2 2,2 28 15 50 27 WSW 1003,3 0,0
17.02.2020 16:00:00 8,8 3,2 29 16 52 28 WSW 1002,4 0,0
17.02.2020 15:00:00 9,2 3,5 28 15 52 28 W 1001,5 0,0
17.02.2020 14:00:00 9,2 4,2 21 11 - - WSW 1000,6 0,0
17.02.2020 13:00:00 8,7 3,6 26 14 - - WSW 999,8 0,0
17.02.2020 12:00:00 8,4 4,0 22 12 50 27 WSW 999,2 0,0
17.02.2020 11:00:00 7,0 3,4 24 13 50 27 SW 998,7 0,0
17.02.2020 10:00:00 6,0 2,4 28 15 61 33 SW 997,7 0,0
17.02.2020 09:00:00 6,1 1,8 34 18 57 31 SW 997,2 0,0
17.02.2020 08:00:00 5,3 1,1 31 17 57 31 SW 996,2 0,0
17.02.2020 07:00:00 5,4 0,5 35 19 57 31 SW 995,5 0,0
17.02.2020 06:00:00 5,4 0,9 37 20 67 36 SW 995,4 0,0
17.02.2020 05:00:00 5,2 1,2 29 16 61 33 SW 995,0 0,0
17.02.2020 04:00:00 5,7 0,5 39 21 65 35 SW 994,4 0,0
17.02.2020 03:00:00 5,0 1,2 31 17 59 32 SW 994,0 0,0
17.02.2020 02:00:00 5,3 0,6 37 20 63 34 SW 992,9 0,0
17.02.2020 01:00:00 5,3 0,7 28 15 54 29 SW 992,6 0,0
17.02.2020 00:00:00 5,5 0,9 37 20 57 31 SW 991,6 0,0
16.02.2020 23:00:00 5,1 1,6 31 17 59 32 SW 990,9 0,0
16.02.2020 22:00:00 5,4 1,2 39 21 65 35 SW 990,1 0,0
16.02.2020 21:00:00 4,9 1,5 34 18 65 35 SW 989,5 0,0
16.02.2020 20:00:00 5,2 1,6 39 21 65 35 SW 988,8 0,0
16.02.2020 19:00:00 4,8 2,4 41 22 83 45 WSW 988,4 1,0
16.02.2020 18:00:00 6,3 1,5 28 15 48 26 SW 986,7 0,0
16.02.2020 17:00:00 7,1 1,6 31 17 63 34 SW 986,1 0,0
16.02.2020 16:00:00 6,5 4,1 21 11 67 36 SW 985,1 0,6
16.02.2020 15:00:00 7,1 3,1 31 17 61 33 SW 985,2 0,2
16.02.2020 14:00:00 8,7 3,2 29 16 52 28 SW 984,6 0,0
16.02.2020 13:00:00 8,4 3,7 29 16 48 26 SW 985,1 0,0
16.02.2020 12:00:00 8,3 3,7 26 14 - - SW 985,2 0,0
16.02.2020 11:00:00 7,4 4,2 22 12 59 32 WSW 985,9 0,6
16.02.2020 10:00:00 6,5 3,4 34 18 63 34 WSW 985,1 0,2
16.02.2020 09:00:00 7,4 4,2 35 19 74 40 WSW 984,0 0,4
16.02.2020 08:00:00 8,9 5,4 34 18 81 44 SW 982,3 0,0
16.02.2020 07:00:00 8,9 5,0 42 23 78 42 SW 981,6 0,0
16.02.2020 06:00:00 9,0 7,3 28 15 50 27 SW 981,6 0,6
16.02.2020 05:00:00 8,8 7,4 28 15 54 29 SW 981,6 1,6
16.02.2020 04:00:00 9,1 8,1 28 15 48 26 SW 981,7 3,0
16.02.2020 03:00:00 9,2 8,1 24 13 - - SW 982,4 2,8
16.02.2020 02:00:00 9,8 8,3 26 14 48 26 SW 983,2 5,6
16.02.2020 01:00:00 10,2 9,4 13 7 - - SW 984,7 4,0
16.02.2020 00:00:00 9,4 7,6 21 11 67 36 SW 986,1 2,6
15.02.2020 23:00:00 11,9 7,6 37 20 63 34 SW 986,8 0,0
15.02.2020 22:00:00 10,9 8,2 26 14 57 31 SW 986,5 0,0
15.02.2020 21:00:00 10,6 8,3 34 18 85 46 WSW 985,6 3,2
15.02.2020 20:00:00 12,6 9,8 57 31 93 50 SSW 983,0 0,0
15.02.2020 19:00:00 11,1 9,6 68 37 94 51 SSW 983,5 0,4
15.02.2020 18:00:00 11,0 8,8 67 36 83 45 SSW 984,3 0,0
15.02.2020 17:00:00 10,5 9,0 61 33 76 41 SSW 986,2 0,2
15.02.2020 16:00:00 10,5 9,0 61 33 89 48 SSW 988,6 0,0
15.02.2020 15:00:00 10,7 9,2 59 32 91 49 SSW 990,0 0,2
15.02.2020 14:00:00 10,3 8,9 57 31 81 44 SSW 992,2 0,2
15.02.2020 13:00:00 10,3 8,9 61 33 78 42 S 994,3 0,0
15.02.2020 12:00:00 10,7 9,0 54 29 80 43 SSW 996,4 0,0
15.02.2020 11:00:00 10,1 9,4 57 31 68 37 S 997,6 0,4
15.02.2020 10:00:00 9,2 9,2 42 23 52 28 S 999,8 0,2
15.02.2020 09:00:00 7,5 7,4 29 16 - - SSE 1001,1 0,0
15.02.2020 08:00:00 7,1 7,0 31 17 - - S 1003,2 0,4
15.02.2020 07:00:00 6,8 6,6 24 13 - - S 1004,8 0,2
15.02.2020 06:00:00 6,8 6,5 21 11 - - S 1005,8 0,0
15.02.2020 05:00:00 6,3 6,1 13 7 - - SSW 1007,2 0,0
15.02.2020 04:00:00 6,4 6,0 11 6 - - SSW 1008,2 0,0
15.02.2020 03:00:00 5,8 5,1 4 2 - - SE 1009,2 0,0
15.02.2020 02:00:00 6,2 5,2 5 3 - - S 1009,9 0,0
15.02.2020 01:00:00 7,8 6,2 13 7 - - SW 1010,1 0,0
15.02.2020 00:00:00 7,9 6,3 13 7 67 36 WSW 1010,4 0,0
14.02.2020 23:00:00 8,4 6,7 15 8 - - SW 1010,2 0,0
14.02.2020 22:00:00 8,6 7,1 15 8 - - SW 1010,7 0,0
14.02.2020 21:00:00 9,0 7,0 21 11 - - SW 1010,4 0,0
14.02.2020 20:00:00 9,3 7,3 21 11 - - SW 1010,4 0,0
14.02.2020 19:00:00 9,6 7,3 24 13 - - SW 1009,8 0,0
14.02.2020 18:00:00 9,6 7,1 24 13 46 25 SW 1009,2 0,0
14.02.2020 17:00:00 10,0 6,8 29 16 55 30 SW 1008,6 0,0
14.02.2020 16:00:00 9,6 6,2 28 15 46 25 SW 1009,0 0,0
14.02.2020 15:00:00 8,7 5,2 34 18 52 28 SSW 1009,2 0,0
14.02.2020 14:00:00 7,4 4,7 48 26 57 31 S 1008,9 0,0
14.02.2020 13:00:00 7,5 4,0 39 21 57 31 SSW 1009,6 0,0
14.02.2020 12:00:00 7,1 4,1 35 19 59 32 S 1010,9 0,0
14.02.2020 11:00:00 6,4 4,1 37 20 46 25 S 1011,3 0,0
14.02.2020 10:00:00 5,7 3,6 34 18 46 25 S 1012,2 0,0
14.02.2020 09:00:00 5,4 3,5 29 16 - - S 1013,3 0,0
14.02.2020 08:00:00 4,3 3,2 28 15 - - SSW 1013,3 0,0
14.02.2020 07:00:00 4,0 3,4 9 5 - - SW 1013,4 0,0
14.02.2020 06:00:00 4,3 3,8 9 5 - - SW 1013,0 0,0
14.02.2020 05:00:00 4,2 3,7 9 5 - - W 1013,2 0,0
14.02.2020 04:00:00 4,3 3,6 9 5 - - W 1012,6 0,0
14.02.2020 03:00:00 4,8 3,8 11 6 - - NW 1011,6 0,0
14.02.2020 02:00:00 5,5 4,3 9 5 - - WNW 1011,6 0,0
14.02.2020 01:00:00 5,6 4,2 11 6 - - WNW 1010,5 0,0
14.02.2020 00:00:00 6,1 4,5 11 6 - - NW 1009,5 0,0
13.02.2020 23:00:00 6,4 4,7 13 7 - - NW 1008,5 0,0
13.02.2020 22:00:00 6,5 4,5 15 8 - - NNW 1007,1 0,0
13.02.2020 21:00:00 6,4 3,8 15 8 - - N 1005,0 0,0
13.02.2020 20:00:00 6,3 3,9 15 8 - - N 1002,8 0,0
13.02.2020 19:00:00 5,8 4,0 15 8 - - NNW 1001,1 0,0
13.02.2020 18:00:00 5,4 4,0 21 11 - - N 998,5 0,0
13.02.2020 17:00:00 5,6 3,6 26 14 - - N 995,7 0,0
13.02.2020 16:00:00 6,3 4,6 22 12 - - NNW 993,4 0,0
13.02.2020 15:00:00 6,2 3,4 21 11 - - NW 991,5 0,0
13.02.2020 14:00:00 6,5 3,8 22 12 - - WNW 990,3 0,0
13.02.2020 13:00:00 6,7 4,2 18 10 - - WNW 989,2 0,0
13.02.2020 12:00:00 7,4 5,2 18 10 - - W 988,7 0,0
13.02.2020 11:00:00 5,9 5,7 9 5 - - W 988,0 0,4
13.02.2020 10:00:00 4,5 4,0 15 8 50 27 SW 987,9 1,0
13.02.2020 09:00:00 4,6 3,9 46 25 70 38 SSE 988,0 1,4

tt = temperature
td = dewpoint
ff = wind speed
fx = gusts
dd = wind direction
ppp = reduced air pressure
rr = precipitation

Next stations